createdAt,value
2022-07-30T00:01:28.559Z,40.30
2022-07-30T00:04:17.086Z,40.20
2022-07-30T00:07:05.476Z,42.00
2022-07-30T00:09:53.884Z,41.90
2022-07-30T00:12:42.338Z,43.03
2022-07-30T00:15:32.319Z,43.42
2022-07-30T00:18:22.336Z,43.95
2022-07-30T00:21:11.102Z,45.35
2022-07-30T00:24:01.813Z,44.88
2022-07-30T00:26:50.732Z,45.00
2022-07-30T00:29:39.168Z,44.78
2022-07-30T00:32:34.906Z,45.30
2022-07-30T00:35:23.554Z,45.92
2022-07-30T00:38:12.597Z,45.45
2022-07-30T00:41:01.124Z,44.47
2022-07-30T00:43:49.641Z,43.42
2022-07-30T00:46:40.245Z,44.03
2022-07-30T00:49:30.304Z,43.20
2022-07-30T00:52:18.853Z,43.78
2022-07-30T00:55:09.828Z,42.80
2022-07-30T00:57:58.386Z,42.83
2022-07-30T01:00:46.802Z,42.13
2022-07-30T01:03:35.218Z,41.50
2022-07-30T01:06:25.207Z,41.75
2022-07-30T01:09:13.767Z,42.17
2022-07-30T01:12:02.716Z,40.60
2022-07-30T01:14:51.478Z,41.25
2022-07-30T01:17:40.492Z,40.90
2022-07-30T01:20:33.628Z,41.20
2022-07-30T01:23:28.926Z,41.10
2022-07-30T01:26:22.269Z,41.17
2022-07-30T01:29:14.484Z,40.58
2022-07-30T01:32:04.004Z,40.20
2022-07-30T01:34:54.726Z,39.38
2022-07-30T01:37:45.785Z,39.85
2022-07-30T01:40:36.239Z,41.17
2022-07-30T01:43:26.892Z,40.35
2022-07-30T01:46:17.729Z,39.45
2022-07-30T01:49:10.775Z,41.03
2022-07-30T01:52:01.213Z,40.00
2022-07-30T01:54:52.318Z,40.70
2022-07-30T01:57:41.705Z,41.35
2022-07-30T02:00:34.142Z,42.30
2022-07-30T02:03:22.730Z,42.30
2022-07-30T02:06:18.966Z,42.45
2022-07-30T02:09:11.152Z,41.70
2022-07-30T02:12:20.905Z,41.83
2022-07-30T02:15:15.734Z,42.85
2022-07-30T02:18:11.974Z,42.83
2022-07-30T02:21:07.208Z,43.67
2022-07-30T02:23:57.586Z,43.50
2022-07-30T02:26:52.106Z,43.67
2022-07-30T02:29:41.492Z,43.65
2022-07-30T02:32:36.312Z,44.55
2022-07-30T02:35:28.716Z,44.80
2022-07-30T02:38:19.864Z,45.60
2022-07-30T02:41:11.024Z,44.60
2022-07-30T02:44:01.414Z,45.42
2022-07-30T02:46:52.512Z,46.15
2022-07-30T02:50:01.449Z,46.45
2022-07-30T02:52:53.097Z,47.88
2022-07-30T02:55:43.990Z,46.58
2022-07-30T02:58:37.972Z,45.92
2022-07-30T03:01:27.633Z,47.05
2022-07-30T03:04:20.030Z,46.50
2022-07-30T03:07:10.785Z,47.00
2022-07-30T03:10:02.253Z,47.95
2022-07-30T03:12:52.515Z,48.13
2022-07-30T03:15:49.011Z,47.67
2022-07-30T03:18:40.351Z,48.40
2022-07-30T03:21:30.183Z,49.58
2022-07-30T03:24:20.238Z,47.63
2022-07-30T03:27:11.047Z,47.60
2022-07-30T03:30:02.342Z,49.63
2022-07-30T03:32:51.924Z,49.67
2022-07-30T03:35:42.794Z,49.17
2022-07-30T03:38:32.299Z,51.05
2022-07-30T03:41:22.221Z,50.25
2022-07-30T03:44:13.119Z,52.47
2022-07-30T03:47:06.291Z,50.38
2022-07-30T03:50:00.670Z,50.88
2022-07-30T03:52:49.997Z,50.92
2022-07-30T03:55:39.419Z,51.65
2022-07-30T03:59:00.217Z,53.20
2022-07-30T04:01:50.143Z,51.33
2022-07-30T04:05:08.597Z,52.00
2022-07-30T04:07:57.056Z,51.17
2022-07-30T04:10:49.447Z,49.88
2022-07-30T04:13:56.336Z,50.08
2022-07-30T04:16:51.889Z,50.95
2022-07-30T04:19:49.444Z,49.75
2022-07-30T04:22:38.899Z,51.63
2022-07-30T04:25:29.591Z,49.33
2022-07-30T04:28:21.033Z,47.47
2022-07-30T04:31:09.839Z,48.38
2022-07-30T04:34:04.627Z,48.42
2022-07-30T04:37:00.517Z,47.85
2022-07-30T04:39:54.245Z,47.28
2022-07-30T04:42:43.011Z,48.17
2022-07-30T04:45:33.295Z,44.45
2022-07-30T04:48:23.131Z,43.83
2022-07-30T04:51:42.196Z,43.90
2022-07-30T04:54:39.001Z,43.70
2022-07-30T04:57:29.660Z,43.45
2022-07-30T05:00:18.700Z,42.38
2022-07-30T05:03:09.689Z,41.97
2022-07-30T05:05:58.854Z,41.90
2022-07-30T05:08:52.942Z,42.72
2022-07-30T05:11:42.711Z,41.45
2022-07-30T05:14:31.680Z,42.40
2022-07-30T05:17:20.125Z,43.05
2022-07-30T05:20:09.764Z,41.90
2022-07-30T05:23:16.732Z,42.25
2022-07-30T05:26:13.344Z,41.65
2022-07-30T05:29:06.969Z,40.28
2022-07-30T05:32:08.650Z,43.03
2022-07-30T05:34:59.348Z,42.15
2022-07-30T05:37:49.275Z,42.30
2022-07-30T05:40:38.603Z,43.17
2022-07-30T05:44:07.050Z,43.50
2022-07-30T05:46:55.430Z,42.65
2022-07-30T05:49:44.718Z,42.17
2022-07-30T05:52:35.884Z,39.33
2022-07-30T05:55:36.601Z,40.67
2022-07-30T05:58:33.217Z,37.63
2022-07-30T06:01:23.301Z,37.20
2022-07-30T06:04:11.965Z,35.65
2022-07-30T06:07:07.359Z,35.97
2022-07-30T06:10:00.131Z,34.15
2022-07-30T06:12:49.234Z,34.28
2022-07-30T06:15:39.795Z,33.60
2022-07-30T06:18:29.736Z,32.88
2022-07-30T06:21:18.935Z,32.03
2022-07-30T06:24:29.760Z,31.65
2022-07-30T06:27:26.081Z,32.05
2022-07-30T06:30:15.940Z,30.15
2022-07-30T06:33:04.463Z,29.88
2022-07-30T06:35:54.341Z,30.13
2022-07-30T06:38:45.952Z,28.95
2022-07-30T06:41:37.325Z,28.50
2022-07-30T06:44:25.675Z,29.33
2022-07-30T06:47:28.547Z,27.05
2022-07-30T06:50:20.451Z,25.95
2022-07-30T06:53:10.186Z,25.92
2022-07-30T06:56:21.697Z,24.48
2022-07-30T06:59:15.192Z,24.40
2022-07-30T07:02:22.528Z,23.77
2022-07-30T07:05:33.869Z,22.85
2022-07-30T07:08:25.241Z,22.88
2022-07-30T07:11:15.783Z,22.33
2022-07-30T07:14:15.167Z,23.15
2022-07-30T07:17:03.777Z,21.75
2022-07-30T07:20:11.656Z,21.88
2022-07-30T07:23:12.368Z,21.20
2022-07-30T07:26:03.807Z,21.02
2022-07-30T07:28:53.554Z,20.85
2022-07-30T07:32:05.399Z,19.73
2022-07-30T07:34:50.615Z,19.85
2022-07-30T07:37:39.242Z,18.05
2022-07-30T07:40:28.816Z,18.60
2022-07-30T07:43:19.967Z,18.15
2022-07-30T07:46:08.846Z,16.90
2022-07-30T07:48:57.994Z,16.35
2022-07-30T07:51:55.714Z,14.40
2022-07-30T07:54:44.821Z,13.30
2022-07-30T07:57:33.218Z,14.13
2022-07-30T08:00:23.429Z,14.52
2022-07-30T08:03:12.544Z,14.00
2022-07-30T08:06:06.289Z,15.27
2022-07-30T08:09:13.670Z,13.93
2022-07-30T08:12:23.507Z,13.68
2022-07-30T08:15:32.676Z,13.57
2022-07-30T08:18:56.178Z,13.10
2022-07-30T08:21:59.769Z,14.25
2022-07-30T08:24:51.967Z,12.77
2022-07-30T08:27:40.494Z,12.13
2022-07-30T08:30:33.038Z,12.07
2022-07-30T08:33:21.722Z,12.70
2022-07-30T08:36:16.033Z,11.43
2022-07-30T08:39:04.750Z,10.98
2022-07-30T08:41:53.959Z,12.30
2022-07-30T08:44:45.530Z,13.00
2022-07-30T08:47:39.535Z,12.73
2022-07-30T08:50:33.765Z,12.82
2022-07-30T08:53:56.398Z,12.57
2022-07-30T08:56:46.188Z,13.23
2022-07-30T08:59:59.179Z,13.40
2022-07-30T09:02:44.931Z,11.98
2022-07-30T09:05:34.580Z,11.32
2022-07-30T09:08:23.129Z,10.80
2022-07-30T09:11:12.492Z,11.77
2022-07-30T09:14:10.164Z,11.60
2022-07-30T09:16:59.315Z,10.13
2022-07-30T09:20:05.354Z,10.35
2022-07-30T09:22:58.819Z,10.88
2022-07-30T09:25:48.640Z,10.95
2022-07-30T09:28:56.100Z,11.35
2022-07-30T09:32:06.991Z,10.68
2022-07-30T09:35:16.450Z,12.07
2022-07-30T09:38:24.031Z,11.55
2022-07-30T09:41:47.775Z,11.38
2022-07-30T09:44:37.232Z,11.35
2022-07-30T09:47:32.608Z,12.27
2022-07-30T09:50:30.295Z,10.25
2022-07-30T09:53:22.499Z,12.57
2022-07-30T09:56:25.763Z,10.30
2022-07-30T09:59:28.546Z,11.02
2022-07-30T10:02:32.217Z,9.43
2022-07-30T10:05:51.382Z,9.07
2022-07-30T10:08:46.122Z,8.95
2022-07-30T10:11:36.446Z,10.05
2022-07-30T10:14:33.900Z,9.63
2022-07-30T10:17:32.854Z,9.25
2022-07-30T10:20:53.147Z,10.18
2022-07-30T10:24:11.824Z,9.70
2022-07-30T10:27:21.577Z,12.13
2022-07-30T10:30:32.126Z,10.90
2022-07-30T10:33:34.780Z,10.80
2022-07-30T10:36:28.398Z,11.80
2022-07-30T10:39:21.671Z,10.68
2022-07-30T10:42:28.584Z,9.85
2022-07-30T10:45:19.798Z,11.63
2022-07-30T10:48:08.448Z,10.95
2022-07-30T10:50:59.969Z,10.38
2022-07-30T10:53:51.072Z,9.35
2022-07-30T10:56:40.542Z,9.80
2022-07-30T10:59:30.079Z,9.40
2022-07-30T11:02:20.752Z,9.20
2022-07-30T11:05:44.244Z,9.43
2022-07-30T11:08:42.772Z,8.80
2022-07-30T11:12:02.311Z,8.48
2022-07-30T11:15:06.908Z,8.45
2022-07-30T11:18:12.665Z,9.48
2022-07-30T11:21:22.798Z,8.63
2022-07-30T11:24:41.010Z,8.27
2022-07-30T11:27:41.457Z,8.65
2022-07-30T11:30:36.195Z,7.43
2022-07-30T11:33:32.030Z,7.85
2022-07-30T11:36:21.319Z,7.85
2022-07-30T11:39:12.818Z,7.03
2022-07-30T11:42:25.848Z,7.63
2022-07-30T11:45:30.960Z,7.30
2022-07-30T11:48:21.358Z,9.60
2022-07-30T11:51:10.101Z,6.88
2022-07-30T11:54:02.778Z,6.97
2022-07-30T11:56:53.136Z,7.82
2022-07-30T11:59:54.442Z,7.13
2022-07-30T12:02:45.600Z,7.85
2022-07-30T12:05:34.139Z,7.25
2022-07-30T12:08:33.451Z,8.48
2022-07-30T12:11:24.947Z,8.23
2022-07-30T12:14:14.179Z,8.02
2022-07-30T12:17:03.003Z,7.55
2022-07-30T12:19:53.114Z,7.95
2022-07-30T12:22:41.758Z,7.82
2022-07-30T12:25:30.553Z,8.75
2022-07-30T12:28:23.991Z,7.88
2022-07-30T12:31:16.626Z,7.47
2022-07-30T12:34:05.117Z,8.52
2022-07-30T12:36:56.013Z,7.53
2022-07-30T12:39:44.498Z,7.47
2022-07-30T12:42:32.999Z,7.05
2022-07-30T12:45:29.615Z,7.20
2022-07-30T12:48:38.248Z,7.57
2022-07-30T12:51:29.787Z,8.02
2022-07-30T12:54:21.264Z,9.98
2022-07-30T12:57:09.603Z,7.95
2022-07-30T13:00:07.367Z,7.22
2022-07-30T13:02:56.628Z,8.02
2022-07-30T13:05:49.940Z,7.43
2022-07-30T13:08:49.388Z,7.40
2022-07-30T13:11:48.776Z,7.32
2022-07-30T13:14:37.643Z,8.00
2022-07-30T13:17:26.044Z,7.70
2022-07-30T13:20:16.177Z,8.00
2022-07-30T13:23:04.689Z,9.15
2022-07-30T13:25:53.770Z,7.60
2022-07-30T13:28:43.752Z,8.70
2022-07-30T13:31:42.899Z,8.30
2022-07-30T13:34:32.004Z,8.32
2022-07-30T13:37:20.508Z,8.65
2022-07-30T13:40:12.463Z,7.60
2022-07-30T13:43:01.345Z,8.05
2022-07-30T13:45:52.330Z,8.05
2022-07-30T13:48:40.981Z,8.88
2022-07-30T13:51:29.668Z,8.77
2022-07-30T13:54:18.137Z,9.45
2022-07-30T13:57:06.608Z,11.27
2022-07-30T13:59:55.072Z,12.15
2022-07-30T14:02:45.113Z,13.20
2022-07-30T14:05:34.299Z,14.30
2022-07-30T14:08:22.858Z,16.20
2022-07-30T14:11:11.373Z,17.52
2022-07-30T14:13:59.895Z,20.05
2022-07-30T14:16:58.595Z,20.27
2022-07-30T14:19:50.374Z,20.92
2022-07-30T14:22:39.140Z,23.85
2022-07-30T14:25:27.624Z,23.15
2022-07-30T14:28:16.235Z,22.67
2022-07-30T14:31:04.727Z,23.58
2022-07-30T14:33:53.232Z,22.98
2022-07-30T14:36:43.833Z,23.10
2022-07-30T14:39:32.303Z,24.73
2022-07-30T14:42:21.159Z,23.27
2022-07-30T14:45:11.297Z,23.92
2022-07-30T14:47:59.837Z,25.05
2022-07-30T14:51:12.138Z,24.73
2022-07-30T14:54:00.656Z,24.67
2022-07-30T14:56:49.116Z,24.52
2022-07-30T14:59:37.582Z,25.45
2022-07-30T15:02:26.045Z,25.58
2022-07-30T15:05:14.424Z,25.45
2022-07-30T15:08:02.817Z,27.05
2022-07-30T15:10:52.709Z,27.30
2022-07-30T15:13:50.022Z,26.77
2022-07-30T15:16:39.207Z,27.02
2022-07-30T15:19:27.590Z,27.50
2022-07-30T15:22:15.993Z,28.63
2022-07-30T15:25:05.135Z,29.15
2022-07-30T15:27:55.033Z,29.75
2022-07-30T15:30:43.625Z,29.92
2022-07-30T15:33:36.694Z,30.67
2022-07-30T15:36:25.597Z,31.52
2022-07-30T15:39:15.485Z,32.55
2022-07-30T15:42:06.377Z,33.92
2022-07-30T15:45:16.163Z,34.60
2022-07-30T15:48:05.279Z,35.47
2022-07-30T15:50:53.728Z,37.28
2022-07-30T15:53:42.153Z,38.28
2022-07-30T15:56:33.403Z,39.05
2022-07-30T15:59:22.506Z,40.20
2022-07-30T16:02:12.499Z,41.25
2022-07-30T16:05:01.034Z,41.50
2022-07-30T16:07:50.647Z,42.95
2022-07-30T16:10:40.726Z,44.47
2022-07-30T16:13:29.186Z,47.30
2022-07-30T16:16:17.686Z,49.20
2022-07-30T16:19:07.784Z,54.10
2022-07-30T16:21:56.633Z,57.53
2022-07-30T16:24:45.234Z,59.53
2022-07-30T16:27:35.474Z,62.03
2022-07-30T16:30:27.599Z,61.90
2022-07-30T16:33:16.133Z,64.05
2022-07-30T16:36:06.302Z,65.82
2022-07-30T16:38:54.838Z,65.43
2022-07-30T16:41:43.505Z,63.08
2022-07-30T16:44:34.106Z,64.57
2022-07-30T16:47:22.631Z,64.82
2022-07-30T16:50:11.775Z,65.22
2022-07-30T16:53:01.769Z,62.88
2022-07-30T16:55:50.198Z,62.55
2022-07-30T16:58:38.802Z,60.20
2022-07-30T17:01:28.856Z,61.72
2022-07-30T17:04:17.819Z,57.83
2022-07-30T17:07:06.296Z,57.35
2022-07-30T17:09:56.008Z,58.72
2022-07-30T17:12:51.022Z,59.45
2022-07-30T17:15:40.358Z,60.25
2022-07-30T17:18:28.752Z,65.30
2022-07-30T17:21:17.609Z,68.20
2022-07-30T17:24:11.228Z,72.25
2022-07-30T17:27:01.343Z,76.22
2022-07-30T17:29:50.821Z,78.13
2022-07-30T17:32:39.446Z,81.40
2022-07-30T17:35:27.915Z,83.82
2022-07-30T17:38:16.422Z,86.60
2022-07-30T17:41:04.924Z,88.57
2022-07-30T17:43:54.685Z,89.93
2022-07-30T17:46:43.150Z,89.80
2022-07-30T17:49:31.507Z,91.45
2022-07-30T17:52:23.388Z,92.32
2022-07-30T17:55:14.785Z,94.47
2022-07-30T17:58:03.503Z,96.35
2022-07-30T18:00:53.399Z,98.93
2022-07-30T18:03:45.022Z,101.95
2022-07-30T18:06:33.770Z,101.72
2022-07-30T18:09:22.563Z,100.85
2022-07-30T18:12:11.169Z,104.13
2022-07-30T18:14:59.693Z,101.95
2022-07-30T18:17:49.687Z,100.35
2022-07-30T18:20:38.269Z,97.82
2022-07-30T18:23:36.694Z,98.82
2022-07-30T18:26:25.118Z,98.05
2022-07-30T18:29:14.214Z,102.35
2022-07-30T18:32:02.887Z,102.07
2022-07-30T18:34:53.147Z,104.22
2022-07-30T18:37:42.043Z,105.80
2022-07-30T18:40:30.776Z,105.22
2022-07-30T18:43:19.220Z,105.32
2022-07-30T18:46:08.691Z,107.32
2022-07-30T18:49:06.989Z,106.90
2022-07-30T18:52:09.019Z,108.82
2022-07-30T18:54:57.413Z,109.70
2022-07-30T18:57:46.302Z,102.25
2022-07-30T19:00:43.276Z,102.35
2022-07-30T19:03:31.906Z,103.00
2022-07-30T19:06:21.506Z,106.28
2022-07-30T19:09:17.190Z,100.15
2022-07-30T19:12:06.814Z,97.80
2022-07-30T19:14:56.182Z,100.47
2022-07-30T19:17:45.909Z,99.65
2022-07-30T19:20:35.316Z,101.13
2022-07-30T19:23:23.804Z,99.15
2022-07-30T19:26:14.663Z,97.75
2022-07-30T19:29:03.338Z,98.38
2022-07-30T19:31:51.890Z,102.15
2022-07-30T19:34:41.044Z,103.55
2022-07-30T19:37:29.530Z,103.28
2022-07-30T19:40:18.955Z,104.18
2022-07-30T19:43:10.220Z,103.85
2022-07-30T19:45:58.926Z,105.72
2022-07-30T19:48:47.920Z,107.75
2022-07-30T19:52:10.054Z,107.57
2022-07-30T19:54:48.302Z,108.55
2022-07-30T19:57:53.085Z,107.78
2022-07-30T20:00:48.495Z,109.93
2022-07-30T20:03:39.027Z,111.65
2022-07-30T20:06:28.241Z,114.53
2022-07-30T20:09:17.718Z,113.70
2022-07-30T20:12:06.382Z,113.50
2022-07-30T20:14:56.071Z,114.88
2022-07-30T20:17:46.555Z,115.07
2022-07-30T20:20:35.125Z,118.85
2022-07-30T20:23:24.997Z,116.45
2022-07-30T20:26:15.283Z,119.75
2022-07-30T20:29:03.782Z,117.93
2022-07-30T20:31:59.159Z,117.97
2022-07-30T20:34:49.060Z,117.75
2022-07-30T20:37:54.613Z,118.90
2022-07-30T20:40:46.817Z,117.68
2022-07-30T20:43:35.245Z,117.00
2022-07-30T20:46:40.178Z,119.90
2022-07-30T20:49:34.264Z,120.47
2022-07-30T20:52:25.731Z,120.65
2022-07-30T20:55:16.652Z,116.13
2022-07-30T20:58:12.590Z,117.60
2022-07-30T21:01:05.008Z,115.80
2022-07-30T21:03:53.493Z,114.00
2022-07-30T21:06:46.172Z,113.65
2022-07-30T21:09:52.029Z,109.47
2022-07-30T21:12:41.062Z,109.13
2022-07-30T21:15:33.802Z,104.47
2022-07-30T21:18:23.324Z,100.80
2022-07-30T21:21:12.215Z,100.68
2022-07-30T21:24:03.259Z,98.53
2022-07-30T21:26:54.166Z,99.30
2022-07-30T21:29:42.904Z,101.38
2022-07-30T21:32:31.390Z,98.38
2022-07-30T21:35:20.104Z,97.03
2022-07-30T21:38:09.001Z,97.53
2022-07-30T21:40:57.377Z,97.40
2022-07-30T21:43:49.342Z,97.28
2022-07-30T21:46:40.620Z,97.00
2022-07-30T21:49:31.625Z,98.47
2022-07-30T21:52:20.276Z,93.43
2022-07-30T21:55:09.800Z,93.97
2022-07-30T21:58:02.034Z,92.70
2022-07-30T22:01:17.348Z,93.30
2022-07-30T22:04:08.420Z,93.45
2022-07-30T22:07:00.486Z,93.45
2022-07-30T22:09:50.395Z,92.35
2022-07-30T22:12:39.131Z,90.93
2022-07-30T22:15:27.639Z,91.90
2022-07-30T22:18:17.847Z,92.72
2022-07-30T22:21:09.350Z,92.47
2022-07-30T22:23:59.861Z,93.15
2022-07-30T22:26:50.827Z,93.43
2022-07-30T22:29:42.649Z,94.22
2022-07-30T22:32:31.316Z,94.35
2022-07-30T22:35:33.941Z,95.45
2022-07-30T22:38:22.705Z,95.15
2022-07-30T22:41:14.197Z,97.07
2022-07-30T22:44:02.681Z,97.35
2022-07-30T22:46:56.334Z,100.38
2022-07-30T22:49:46.254Z,102.80
2022-07-30T22:52:56.966Z,102.55
2022-07-30T22:55:48.313Z,98.97
2022-07-30T22:58:36.728Z,97.82
2022-07-30T23:01:25.294Z,99.97
2022-07-30T23:04:14.425Z,101.50
2022-07-30T23:07:05.512Z,100.72
2022-07-30T23:09:55.269Z,98.63
2022-07-30T23:12:44.541Z,94.70
2022-07-30T23:15:33.398Z,92.40
2022-07-30T23:18:22.342Z,90.65
2022-07-30T23:21:10.816Z,90.82
2022-07-30T23:23:59.824Z,90.72
2022-07-30T23:26:50.513Z,96.78
2022-07-30T23:29:38.894Z,98.13
2022-07-30T23:32:27.418Z,104.03
2022-07-30T23:35:15.919Z,106.57
2022-07-30T23:38:04.486Z,109.35
2022-07-30T23:40:52.917Z,110.57
2022-07-30T23:43:42.804Z,111.85
2022-07-30T23:46:31.210Z,112.28
2022-07-30T23:49:19.719Z,110.40
2022-07-30T23:52:09.694Z,111.28
2022-07-30T23:54:59.300Z,110.15
2022-07-30T23:57:47.707Z,109.65
